createdAt,value
2024-01-29T00:00:17.137Z,100.00
2024-01-29T00:03:29.909Z,100.00
2024-01-29T00:06:42.510Z,100.00
2024-01-29T00:09:55.424Z,100.00
2024-01-29T00:13:07.853Z,100.00
2024-01-29T00:16:20.583Z,100.00
2024-01-29T00:19:33.155Z,100.00
2024-01-29T00:22:46.332Z,100.00
2024-01-29T00:25:58.752Z,100.00
2024-01-29T00:29:12.485Z,100.00
2024-01-29T00:32:25.024Z,100.00
2024-01-29T00:35:38.294Z,100.00
2024-01-29T00:38:50.821Z,100.00
2024-01-29T00:42:03.796Z,100.00
2024-01-29T00:45:16.255Z,100.00
2024-01-29T00:48:29.006Z,100.00
2024-01-29T00:51:41.716Z,100.00
2024-01-29T00:54:54.414Z,100.00
2024-01-29T00:58:07.157Z,100.00
2024-01-29T01:01:19.965Z,100.00
2024-01-29T01:04:32.690Z,100.00
2024-01-29T01:07:45.447Z,100.00
2024-01-29T01:10:57.928Z,100.00
2024-01-29T01:14:10.639Z,100.00
2024-01-29T01:17:23.084Z,100.00
2024-01-29T01:20:36.019Z,100.00
2024-01-29T01:23:48.390Z,100.00
2024-01-29T01:27:01.066Z,100.00
2024-01-29T01:30:13.651Z,100.00
2024-01-29T01:33:26.352Z,100.00
2024-01-29T01:36:38.929Z,100.00
2024-01-29T01:39:54.840Z,100.00
2024-01-29T01:43:23.260Z,100.00
2024-01-29T01:46:36.011Z,100.00
2024-01-29T01:49:49.108Z,100.00
2024-01-29T01:53:02.014Z,100.00
2024-01-29T01:56:14.609Z,100.00
2024-01-29T01:59:27.400Z,100.00
2024-01-29T02:02:39.729Z,100.00
2024-01-29T02:05:52.629Z,100.00
2024-01-29T02:09:06.999Z,100.00
2024-01-29T02:12:22.199Z,100.00
2024-01-29T02:15:34.911Z,100.00
2024-01-29T02:18:47.596Z,100.00
2024-01-29T02:22:00.200Z,100.00
2024-01-29T02:25:15.738Z,100.00
2024-01-29T02:28:29.201Z,100.00
2024-01-29T02:31:44.304Z,100.00
2024-01-29T02:34:56.753Z,100.00
2024-01-29T02:38:09.504Z,100.00
2024-01-29T02:41:22.378Z,100.00
2024-01-29T02:44:35.047Z,100.00
2024-01-29T02:47:47.458Z,100.00
2024-01-29T02:51:00.135Z,100.00
2024-01-29T02:54:12.622Z,100.00
2024-01-29T02:57:25.648Z,100.00
2024-01-29T03:00:38.242Z,100.00
2024-01-29T03:03:51.100Z,100.00
2024-01-29T03:07:03.606Z,100.00
2024-01-29T03:10:16.490Z,100.00
2024-01-29T03:13:28.936Z,100.00
2024-01-29T03:16:41.615Z,100.00
2024-01-29T03:19:54.131Z,100.00
2024-01-29T03:23:06.946Z,100.00
2024-01-29T03:26:19.361Z,100.00
2024-01-29T03:29:32.473Z,100.00
2024-01-29T03:32:44.922Z,100.00
2024-01-29T03:35:57.602Z,100.00
2024-01-29T03:39:10.011Z,100.00
2024-01-29T03:42:22.729Z,100.00
2024-01-29T03:45:35.282Z,100.00
2024-01-29T03:48:48.172Z,100.00
2024-01-29T03:52:00.719Z,100.00
2024-01-29T03:55:13.652Z,100.00
2024-01-29T03:58:26.234Z,100.00
2024-01-29T04:01:39.933Z,100.00
2024-01-29T04:04:53.038Z,100.00
2024-01-29T04:08:06.093Z,100.00
2024-01-29T04:11:18.772Z,100.00
2024-01-29T04:14:31.865Z,100.00
2024-01-29T04:17:44.622Z,100.00
2024-01-29T04:20:57.077Z,100.00
2024-01-29T04:24:13.017Z,100.00
2024-01-29T04:27:25.438Z,100.00
2024-01-29T04:30:41.393Z,100.00
2024-01-29T04:33:53.962Z,100.00
2024-01-29T04:37:06.748Z,100.00
2024-01-29T04:40:19.173Z,100.00
2024-01-29T04:43:31.829Z,100.00
2024-01-29T04:46:44.216Z,100.00
2024-01-29T04:49:56.934Z,100.00
2024-01-29T04:53:13.597Z,100.00
2024-01-29T04:56:26.291Z,100.00
2024-01-29T04:59:38.660Z,100.00
2024-01-29T05:02:51.333Z,100.00
2024-01-29T05:06:03.905Z,100.00
2024-01-29T05:09:18.596Z,100.00
2024-01-29T05:12:32.320Z,100.00
2024-01-29T05:15:45.197Z,100.00
2024-01-29T05:18:58.553Z,100.00
2024-01-29T05:22:11.300Z,100.00
2024-01-29T05:25:23.733Z,100.00
2024-01-29T05:28:36.435Z,100.00
2024-01-29T05:31:48.932Z,100.00
2024-01-29T05:35:03.035Z,100.00
2024-01-29T05:38:15.715Z,100.00
2024-01-29T05:41:29.558Z,100.00
2024-01-29T05:44:42.537Z,100.00
2024-01-29T05:47:55.300Z,100.00
2024-01-29T05:51:07.701Z,100.00
2024-01-29T05:54:23.307Z,100.00
2024-01-29T05:57:35.883Z,100.00
2024-01-29T06:00:48.739Z,100.00
2024-01-29T06:04:01.591Z,100.00
2024-01-29T06:07:14.054Z,100.00
2024-01-29T06:10:26.876Z,100.00
2024-01-29T06:13:39.994Z,100.00
2024-01-29T06:16:52.684Z,100.00
2024-01-29T06:20:16.278Z,100.00
2024-01-29T06:23:32.510Z,100.00
2024-01-29T06:26:47.125Z,100.00
2024-01-29T06:30:01.422Z,100.00
2024-01-29T06:33:14.025Z,100.00
2024-01-29T06:36:29.798Z,100.00
2024-01-29T06:39:42.497Z,100.00
2024-01-29T06:42:58.913Z,100.00
2024-01-29T06:46:11.476Z,100.00
2024-01-29T06:49:32.139Z,100.00
2024-01-29T06:52:44.753Z,100.00
2024-01-29T06:56:00.391Z,100.00
2024-01-29T06:59:13.410Z,100.00
2024-01-29T07:02:26.171Z,100.00
2024-01-29T07:05:38.690Z,100.00
2024-01-29T07:08:51.452Z,100.00
2024-01-29T07:12:04.070Z,100.00
2024-01-29T07:15:19.460Z,100.00
2024-01-29T07:18:31.996Z,100.00
2024-01-29T07:21:45.103Z,100.00
2024-01-29T07:24:57.599Z,100.00
2024-01-29T07:28:13.654Z,100.00
2024-01-29T07:31:27.388Z,100.00
2024-01-29T07:34:40.255Z,100.00
2024-01-29T07:37:53.814Z,100.00
2024-01-29T07:41:06.575Z,100.00
2024-01-29T07:44:19.061Z,100.00
2024-01-29T07:47:31.945Z,100.00
2024-01-29T07:50:44.353Z,100.00
2024-01-29T07:53:57.262Z,100.00
2024-01-29T07:57:09.779Z,100.00
2024-01-29T08:00:22.616Z,100.00
2024-01-29T08:03:35.476Z,100.00
2024-01-29T08:06:48.173Z,100.00
2024-01-29T08:10:02.808Z,100.00
2024-01-29T08:13:15.453Z,100.00
2024-01-29T08:16:28.161Z,100.00
2024-01-29T08:19:40.691Z,100.00
2024-01-29T08:22:53.559Z,100.00
2024-01-29T08:26:06.451Z,100.00
2024-01-29T08:29:19.218Z,100.00
2024-01-29T08:32:31.636Z,100.00
2024-01-29T08:35:44.512Z,100.00
2024-01-29T08:38:57.203Z,100.00
2024-01-29T08:42:10.353Z,100.00
2024-01-29T08:45:22.881Z,100.00
2024-01-29T08:48:35.616Z,100.00
2024-01-29T08:51:48.110Z,100.00
2024-01-29T08:55:00.853Z,100.00
2024-01-29T08:58:13.355Z,100.00
2024-01-29T09:01:26.098Z,100.00
2024-01-29T09:04:38.675Z,100.00
2024-01-29T09:07:52.543Z,100.00
2024-01-29T09:11:05.226Z,100.00
2024-01-29T09:14:17.976Z,100.00
2024-01-29T09:17:30.445Z,100.00
2024-01-29T09:20:43.121Z,100.00
2024-01-29T09:23:55.672Z,100.00
2024-01-29T09:27:08.434Z,100.00
2024-01-29T09:30:20.878Z,100.00
2024-01-29T09:33:34.825Z,100.00
2024-01-29T09:36:47.615Z,100.00
2024-01-29T09:40:03.028Z,100.00
2024-01-29T09:43:17.786Z,100.00
2024-01-29T09:46:30.657Z,100.00
2024-01-29T09:49:47.524Z,100.00
2024-01-29T09:53:00.283Z,100.00
2024-01-29T09:56:12.714Z,100.00
2024-01-29T09:59:25.417Z,100.00
2024-01-29T10:02:37.966Z,100.00
2024-01-29T10:05:50.851Z,100.00
2024-01-29T10:09:03.463Z,100.00
2024-01-29T10:12:23.837Z,100.00
2024-01-29T10:15:36.470Z,100.00
2024-01-29T10:19:01.696Z,100.00
2024-01-29T10:22:16.614Z,100.00
2024-01-29T10:25:30.733Z,100.00
2024-01-29T10:28:43.200Z,100.00
2024-01-29T10:32:00.233Z,100.00
2024-01-29T10:35:13.310Z,100.00
2024-01-29T10:38:26.120Z,100.00
2024-01-29T10:41:38.507Z,100.00
2024-01-29T10:44:51.201Z,100.00
2024-01-29T10:48:10.821Z,100.00
2024-01-29T10:51:23.575Z,100.00
2024-01-29T10:54:36.007Z,100.00
2024-01-29T10:57:48.837Z,100.00
2024-01-29T11:01:01.347Z,100.00
2024-01-29T11:04:14.246Z,100.00
2024-01-29T11:07:26.946Z,100.00
2024-01-29T11:10:39.964Z,100.00
2024-01-29T11:13:52.603Z,99.37
2024-01-29T11:17:05.294Z,100.00
2024-01-29T11:20:19.178Z,100.00
2024-01-29T11:23:44.707Z,96.95
2024-01-29T11:27:07.201Z,99.19
2024-01-29T11:30:21.063Z,96.80
2024-01-29T11:33:34.063Z,96.94
2024-01-29T11:36:52.484Z,96.53
2024-01-29T11:40:05.381Z,97.42
2024-01-29T11:43:21.311Z,95.22
2024-01-29T11:46:33.874Z,93.75
2024-01-29T11:49:46.780Z,94.01
2024-01-29T11:53:05.074Z,92.79
2024-01-29T11:56:19.306Z,90.94
2024-01-29T11:59:31.681Z,93.34
2024-01-29T12:02:45.934Z,91.54
2024-01-29T12:05:58.588Z,90.71
2024-01-29T12:09:10.949Z,89.28
2024-01-29T12:12:24.237Z,88.51
2024-01-29T12:15:36.749Z,88.17
2024-01-29T12:18:51.000Z,86.04
2024-01-29T12:22:03.768Z,83.18
2024-01-29T12:25:16.553Z,83.19
2024-01-29T12:28:29.690Z,81.87
2024-01-29T12:31:43.719Z,80.41
2024-01-29T12:34:56.170Z,78.44
2024-01-29T12:38:09.826Z,79.25
2024-01-29T12:41:22.445Z,80.45
2024-01-29T12:44:35.157Z,79.92
2024-01-29T12:47:47.686Z,77.20
2024-01-29T12:51:00.461Z,78.23
2024-01-29T12:54:13.000Z,80.34
2024-01-29T12:57:25.718Z,79.49
2024-01-29T13:00:38.879Z,78.48
2024-01-29T13:03:51.637Z,78.50
2024-01-29T13:07:04.859Z,77.00
2024-01-29T13:10:17.827Z,77.74
2024-01-29T13:13:30.407Z,78.63
2024-01-29T13:16:43.293Z,76.98
2024-01-29T13:19:56.322Z,76.18
2024-01-29T13:23:13.600Z,77.29
2024-01-29T13:26:33.114Z,76.75
2024-01-29T13:29:45.963Z,75.38
2024-01-29T13:32:58.374Z,73.95
2024-01-29T13:36:11.272Z,73.55
2024-01-29T13:39:23.858Z,72.68
2024-01-29T13:42:37.027Z,76.18
2024-01-29T13:45:49.745Z,73.88
2024-01-29T13:49:02.560Z,73.01
2024-01-29T13:52:15.251Z,71.81
2024-01-29T13:55:27.995Z,69.99
2024-01-29T13:58:40.364Z,70.06
2024-01-29T14:01:53.082Z,70.38
2024-01-29T14:05:06.590Z,69.77
2024-01-29T14:08:19.249Z,70.96
2024-01-29T14:11:31.887Z,68.56
2024-01-29T14:14:47.538Z,67.09
2024-01-29T14:18:00.972Z,65.03
2024-01-29T14:21:13.478Z,61.68
2024-01-29T14:24:26.183Z,62.97
2024-01-29T14:27:38.649Z,62.01
2024-01-29T14:30:51.398Z,63.77
2024-01-29T14:34:05.213Z,63.82
2024-01-29T14:37:18.234Z,62.83
2024-01-29T14:40:30.726Z,64.08
2024-01-29T14:43:43.690Z,64.18
2024-01-29T14:46:56.072Z,66.15
2024-01-29T14:50:08.989Z,68.81
2024-01-29T14:53:21.385Z,71.43
2024-01-29T14:56:40.929Z,72.08
2024-01-29T14:59:53.337Z,68.98
2024-01-29T15:03:06.259Z,66.76
2024-01-29T15:06:22.258Z,64.79
2024-01-29T15:09:34.980Z,66.22
2024-01-29T15:12:47.480Z,66.92
2024-01-29T15:16:00.316Z,68.94
2024-01-29T15:19:12.843Z,69.28
2024-01-29T15:22:25.649Z,73.15
2024-01-29T15:28:52.751Z,75.21
2024-01-29T15:32:05.244Z,75.49
2024-01-29T15:35:18.017Z,77.48
2024-01-29T15:38:30.435Z,79.71
2024-01-29T15:41:43.194Z,82.34
2024-01-29T15:44:55.690Z,84.13
2024-01-29T15:48:09.295Z,84.79
2024-01-29T15:51:24.497Z,87.78
2024-01-29T15:54:38.963Z,91.05
2024-01-29T15:57:51.416Z,92.16
2024-01-29T16:01:05.650Z,92.49
2024-01-29T16:04:18.442Z,95.67
2024-01-29T16:07:31.105Z,100.00
2024-01-29T16:10:46.885Z,100.00
2024-01-29T16:13:59.371Z,100.00
2024-01-29T16:17:12.039Z,100.00
2024-01-29T16:20:24.551Z,100.00
2024-01-29T16:23:37.315Z,100.00
2024-01-29T16:26:50.858Z,100.00
2024-01-29T16:30:03.780Z,100.00
2024-01-29T16:33:16.196Z,100.00
2024-01-29T16:36:28.903Z,100.00
2024-01-29T16:39:42.404Z,100.00
2024-01-29T16:42:55.220Z,100.00
2024-01-29T16:46:10.393Z,100.00
2024-01-29T16:49:23.568Z,100.00
2024-01-29T16:52:36.157Z,100.00
2024-01-29T16:55:48.901Z,100.00
2024-01-29T16:59:02.378Z,100.00
2024-01-29T17:02:19.412Z,100.00
2024-01-29T17:05:32.222Z,100.00
2024-01-29T17:08:45.229Z,100.00
2024-01-29T17:11:57.662Z,100.00
2024-01-29T17:15:11.244Z,100.00
2024-01-29T17:18:23.794Z,100.00
2024-01-29T17:21:36.610Z,100.00
2024-01-29T17:24:49.215Z,100.00
2024-01-29T17:28:02.552Z,100.00
2024-01-29T17:31:15.123Z,100.00
2024-01-29T17:34:31.188Z,100.00
2024-01-29T17:37:43.601Z,100.00
2024-01-29T17:40:56.784Z,100.00
2024-01-29T17:44:09.670Z,100.00
2024-01-29T17:47:22.396Z,100.00
2024-01-29T17:50:34.899Z,100.00
2024-01-29T17:53:47.918Z,100.00
2024-01-29T17:57:00.365Z,100.00
2024-01-29T18:00:14.614Z,100.00
2024-01-29T18:03:28.074Z,100.00
2024-01-29T18:06:50.488Z,100.00
2024-01-29T18:10:05.413Z,100.00
2024-01-29T18:13:17.952Z,100.00
2024-01-29T18:16:30.607Z,100.00
2024-01-29T18:19:43.141Z,100.00
2024-01-29T18:22:55.797Z,100.00
2024-01-29T18:26:08.183Z,100.00
2024-01-29T18:29:20.845Z,100.00
2024-01-29T18:32:33.306Z,100.00
2024-01-29T18:35:46.897Z,100.00
2024-01-29T18:38:59.284Z,100.00
2024-01-29T18:42:13.036Z,100.00
2024-01-29T18:45:25.406Z,100.00
2024-01-29T18:48:38.572Z,100.00
2024-01-29T18:51:54.013Z,100.00
2024-01-29T18:55:09.546Z,100.00
2024-01-29T18:58:22.015Z,100.00
2024-01-29T19:01:35.012Z,100.00
2024-01-29T19:04:47.669Z,100.00
2024-01-29T19:08:00.383Z,100.00
2024-01-29T19:11:15.592Z,100.00
2024-01-29T19:14:28.397Z,100.00
2024-01-29T19:17:40.851Z,100.00
2024-01-29T19:20:57.397Z,100.00
2024-01-29T19:24:10.148Z,100.00
2024-01-29T19:27:22.881Z,100.00
2024-01-29T19:30:38.677Z,100.00
2024-01-29T19:33:51.474Z,100.00
2024-01-29T19:37:05.710Z,100.00
2024-01-29T19:40:19.815Z,100.00
2024-01-29T19:43:32.347Z,100.00
2024-01-29T19:46:45.150Z,100.00
2024-01-29T19:49:58.344Z,100.00
2024-01-29T19:53:11.600Z,100.00
2024-01-29T19:56:24.024Z,100.00
2024-01-29T19:59:36.695Z,100.00
2024-01-29T20:02:50.325Z,100.00
2024-01-29T20:06:04.607Z,100.00
2024-01-29T20:09:17.072Z,100.00
2024-01-29T20:12:30.548Z,100.00
2024-01-29T20:15:42.996Z,100.00
2024-01-29T20:18:55.930Z,100.00
2024-01-29T20:22:08.593Z,100.00
2024-01-29T20:25:21.563Z,100.00
2024-01-29T20:28:34.075Z,100.00
2024-01-29T20:31:46.888Z,100.00
2024-01-29T20:34:59.455Z,100.00
2024-01-29T20:38:12.194Z,100.00
2024-01-29T20:41:37.381Z,100.00
2024-01-29T20:44:55.200Z,100.00
2024-01-29T20:48:08.089Z,100.00
2024-01-29T20:51:20.896Z,100.00
2024-01-29T20:54:33.375Z,100.00
2024-01-29T20:57:46.180Z,100.00
2024-01-29T21:00:58.701Z,100.00
2024-01-29T21:04:12.740Z,100.00
2024-01-29T21:07:25.560Z,100.00
2024-01-29T21:10:38.700Z,100.00
2024-01-29T21:13:51.385Z,100.00
2024-01-29T21:17:04.690Z,100.00
2024-01-29T21:20:18.007Z,100.00
2024-01-29T21:23:30.791Z,100.00
2024-01-29T21:26:43.261Z,100.00
2024-01-29T21:29:56.035Z,100.00
2024-01-29T21:33:08.462Z,100.00
2024-01-29T21:36:21.151Z,100.00
2024-01-29T21:39:33.734Z,100.00
2024-01-29T21:42:46.447Z,100.00
2024-01-29T21:45:58.907Z,100.00
2024-01-29T21:49:15.717Z,100.00
2024-01-29T21:52:28.202Z,100.00
2024-01-29T21:55:41.032Z,100.00
2024-01-29T21:58:53.520Z,100.00
2024-01-29T22:02:06.424Z,100.00
2024-01-29T22:05:19.478Z,100.00
2024-01-29T22:08:32.426Z,100.00
2024-01-29T22:11:45.088Z,100.00
2024-01-29T22:14:57.440Z,100.00
2024-01-29T22:18:10.504Z,100.00
2024-01-29T22:21:23.125Z,100.00
2024-01-29T22:24:35.920Z,100.00
2024-01-29T22:27:48.364Z,100.00
2024-01-29T22:31:01.120Z,100.00
2024-01-29T22:34:13.833Z,100.00
2024-01-29T22:37:26.707Z,100.00
2024-01-29T22:40:39.142Z,100.00
2024-01-29T22:43:51.897Z,100.00
2024-01-29T22:47:05.214Z,100.00
2024-01-29T22:50:18.128Z,100.00
2024-01-29T22:53:30.510Z,100.00
2024-01-29T22:56:43.265Z,100.00
2024-01-29T22:59:55.685Z,100.00
2024-01-29T23:03:08.486Z,100.00
2024-01-29T23:06:22.959Z,100.00
2024-01-29T23:09:35.808Z,100.00
2024-01-29T23:12:49.097Z,100.00
2024-01-29T23:16:01.806Z,100.00
2024-01-29T23:19:15.194Z,100.00
2024-01-29T23:22:27.949Z,100.00
2024-01-29T23:25:40.555Z,100.00
2024-01-29T23:28:53.861Z,100.00
2024-01-29T23:32:06.890Z,100.00
2024-01-29T23:35:19.557Z,100.00
2024-01-29T23:38:31.986Z,100.00
2024-01-29T23:41:44.656Z,100.00
2024-01-29T23:44:57.029Z,100.00
2024-01-29T23:48:10.383Z,100.00
2024-01-29T23:51:22.906Z,100.00
2024-01-29T23:54:35.795Z,100.00
2024-01-29T23:57:48.485Z,100.00
